sensor_id;sensor_type;location;lat;lon;timestamp;P1;durP1;ratioP1;P2;durP2;ratioP2
75526;SDS011;64107;49.248;7.006;2023-08-17T00:00:24;15.00;;;6.65;;
75526;SDS011;64107;49.248;7.006;2023-08-17T00:02:50;16.48;;;6.65;;
75526;SDS011;64107;49.248;7.006;2023-08-17T00:05:17;14.98;;;5.75;;
75526;SDS011;64107;49.248;7.006;2023-08-17T00:07:43;14.95;;;5.35;;
75526;SDS011;64107;49.248;7.006;2023-08-17T00:10:09;10.50;;;5.25;;
75526;SDS011;64107;49.248;7.006;2023-08-17T00:12:35;15.70;;;5.38;;
75526;SDS011;64107;49.248;7.006;2023-08-17T00:15:01;17.98;;;5.32;;
75526;SDS011;64107;49.248;7.006;2023-08-17T00:17:27;15.93;;;6.40;;
75526;SDS011;64107;49.248;7.006;2023-08-17T00:19:55;10.85;;;5.03;;
75526;SDS011;64107;49.248;7.006;2023-08-17T00:22:21;12.10;;;5.88;;
75526;SDS011;64107;49.248;7.006;2023-08-17T00:24:47;11.48;;;5.40;;
75526;SDS011;64107;49.248;7.006;2023-08-17T00:27:13;9.10;;;4.05;;
75526;SDS011;64107;49.248;7.006;2023-08-17T00:29:39;6.40;;;3.55;;
75526;SDS011;64107;49.248;7.006;2023-08-17T00:32:05;19.70;;;5.32;;
75526;SDS011;64107;49.248;7.006;2023-08-17T00:34:31;25.02;;;5.50;;
75526;SDS011;64107;49.248;7.006;2023-08-17T00:36:57;13.15;;;5.22;;
75526;SDS011;64107;49.248;7.006;2023-08-17T00:39:23;20.52;;;4.75;;
75526;SDS011;64107;49.248;7.006;2023-08-17T00:41:49;20.02;;;4.53;;
75526;SDS011;64107;49.248;7.006;2023-08-17T00:44:15;28.08;;;4.80;;
75526;SDS011;64107;49.248;7.006;2023-08-17T00:46:41;12.60;;;5.07;;
75526;SDS011;64107;49.248;7.006;2023-08-17T00:49:07;13.57;;;4.72;;
75526;SDS011;64107;49.248;7.006;2023-08-17T00:51:33;9.70;;;4.07;;
75526;SDS011;64107;49.248;7.006;2023-08-17T00:54:00;9.82;;;4.47;;
75526;SDS011;64107;49.248;7.006;2023-08-17T00:56:27;14.30;;;5.30;;
75526;SDS011;64107;49.248;7.006;2023-08-17T00:58:53;15.50;;;5.38;;
75526;SDS011;64107;49.248;7.006;2023-08-17T01:01:20;16.45;;;5.50;;
75526;SDS011;64107;49.248;7.006;2023-08-17T01:03:46;16.88;;;5.35;;
75526;SDS011;64107;49.248;7.006;2023-08-17T01:06:12;16.10;;;5.13;;
75526;SDS011;64107;49.248;7.006;2023-08-17T01:08:39;15.75;;;6.30;;
75526;SDS011;64107;49.248;7.006;2023-08-17T01:11:13;14.75;;;4.78;;
75526;SDS011;64107;49.248;7.006;2023-08-17T01:13:53;18.45;;;5.88;;
75526;SDS011;64107;49.248;7.006;2023-08-17T01:16:31;13.18;;;5.47;;
75526;SDS011;64107;49.248;7.006;2023-08-17T01:18:58;15.95;;;5.40;;
75526;SDS011;64107;49.248;7.006;2023-08-17T01:21:29;12.35;;;4.82;;
75526;SDS011;64107;49.248;7.006;2023-08-17T01:24:05;22.63;;;6.57;;
75526;SDS011;64107;49.248;7.006;2023-08-17T01:26:31;18.77;;;6.50;;
75526;SDS011;64107;49.248;7.006;2023-08-17T01:28:57;15.02;;;5.72;;
75526;SDS011;64107;49.248;7.006;2023-08-17T01:31:25;21.15;;;6.22;;
75526;SDS011;64107;49.248;7.006;2023-08-17T01:33:58;16.50;;;6.55;;
75526;SDS011;64107;49.248;7.006;2023-08-17T01:36:36;15.00;;;5.40;;
75526;SDS011;64107;49.248;7.006;2023-08-17T01:39:05;14.98;;;5.60;;
75526;SDS011;64107;49.248;7.006;2023-08-17T01:41:31;20.70;;;6.93;;
75526;SDS011;64107;49.248;7.006;2023-08-17T01:43:58;23.45;;;6.63;;
75526;SDS011;64107;49.248;7.006;2023-08-17T01:46:27;28.15;;;6.13;;
75526;SDS011;64107;49.248;7.006;2023-08-17T01:48:57;21.67;;;6.88;;
75526;SDS011;64107;49.248;7.006;2023-08-17T01:51:24;21.80;;;5.85;;
75526;SDS011;64107;49.248;7.006;2023-08-17T01:53:50;16.60;;;6.28;;
75526;SDS011;64107;49.248;7.006;2023-08-17T01:56:16;23.95;;;6.82;;
75526;SDS011;64107;49.248;7.006;2023-08-17T01:58:42;23.52;;;6.85;;
75526;SDS011;64107;49.248;7.006;2023-08-17T02:01:09;22.65;;;6.35;;
75526;SDS011;64107;49.248;7.006;2023-08-17T02:03:35;25.83;;;7.53;;
75526;SDS011;64107;49.248;7.006;2023-08-17T02:06:01;17.55;;;6.47;;
75526;SDS011;64107;49.248;7.006;2023-08-17T02:08:27;18.80;;;6.05;;
75526;SDS011;64107;49.248;7.006;2023-08-17T02:10:54;18.23;;;6.20;;
75526;SDS011;64107;49.248;7.006;2023-08-17T02:13:20;24.17;;;6.32;;
75526;SDS011;64107;49.248;7.006;2023-08-17T02:15:46;24.25;;;6.97;;
75526;SDS011;64107;49.248;7.006;2023-08-17T02:18:12;24.67;;;7.18;;
75526;SDS011;64107;49.248;7.006;2023-08-17T02:20:38;29.20;;;7.50;;
75526;SDS011;64107;49.248;7.006;2023-08-17T02:23:04;25.40;;;6.35;;
75526;SDS011;64107;49.248;7.006;2023-08-17T02:25:30;25.08;;;7.10;;
75526;SDS011;64107;49.248;7.006;2023-08-17T02:28:01;24.17;;;6.25;;
75526;SDS011;64107;49.248;7.006;2023-08-17T02:30:28;23.27;;;6.22;;
75526;SDS011;64107;49.248;7.006;2023-08-17T02:32:54;20.90;;;5.72;;
75526;SDS011;64107;49.248;7.006;2023-08-17T02:35:20;17.10;;;7.20;;
75526;SDS011;64107;49.248;7.006;2023-08-17T02:37:46;19.00;;;6.00;;
75526;SDS011;64107;49.248;7.006;2023-08-17T02:40:12;16.70;;;5.03;;
75526;SDS011;64107;49.248;7.006;2023-08-17T02:42:38;15.35;;;6.78;;
75526;SDS011;64107;49.248;7.006;2023-08-17T02:45:05;20.92;;;7.40;;
75526;SDS011;64107;49.248;7.006;2023-08-17T02:47:32;14.73;;;5.00;;
75526;SDS011;64107;49.248;7.006;2023-08-17T02:49:58;16.83;;;5.28;;
75526;SDS011;64107;49.248;7.006;2023-08-17T02:52:24;12.32;;;5.30;;
75526;SDS011;64107;49.248;7.006;2023-08-17T02:54:50;17.65;;;5.95;;
75526;SDS011;64107;49.248;7.006;2023-08-17T02:57:16;13.10;;;4.90;;
75526;SDS011;64107;49.248;7.006;2023-08-17T02:59:43;18.08;;;5.50;;
75526;SDS011;64107;49.248;7.006;2023-08-17T03:02:09;16.88;;;5.50;;
75526;SDS011;64107;49.248;7.006;2023-08-17T03:04:35;16.60;;;5.85;;
75526;SDS011;64107;49.248;7.006;2023-08-17T03:07:01;15.15;;;6.05;;
75526;SDS011;64107;49.248;7.006;2023-08-17T03:09:27;15.07;;;6.57;;
75526;SDS011;64107;49.248;7.006;2023-08-17T03:11:53;13.90;;;5.50;;
75526;SDS011;64107;49.248;7.006;2023-08-17T03:14:19;17.83;;;6.68;;
75526;SDS011;64107;49.248;7.006;2023-08-17T03:16:45;19.23;;;7.03;;
75526;SDS011;64107;49.248;7.006;2023-08-17T03:19:12;22.70;;;6.30;;
75526;SDS011;64107;49.248;7.006;2023-08-17T03:21:38;19.58;;;6.20;;
75526;SDS011;64107;49.248;7.006;2023-08-17T03:24:04;19.27;;;6.20;;
75526;SDS011;64107;49.248;7.006;2023-08-17T03:26:30;16.45;;;6.60;;
75526;SDS011;64107;49.248;7.006;2023-08-17T03:28:56;15.93;;;5.85;;
75526;SDS011;64107;49.248;7.006;2023-08-17T03:31:22;15.65;;;6.13;;
75526;SDS011;64107;49.248;7.006;2023-08-17T03:33:49;15.10;;;6.40;;
75526;SDS011;64107;49.248;7.006;2023-08-17T03:36:15;13.43;;;5.55;;
75526;SDS011;64107;49.248;7.006;2023-08-17T03:38:41;15.60;;;6.13;;
75526;SDS011;64107;49.248;7.006;2023-08-17T03:41:07;16.30;;;6.47;;
75526;SDS011;64107;49.248;7.006;2023-08-17T03:43:33;13.52;;;6.90;;
75526;SDS011;64107;49.248;7.006;2023-08-17T03:45:59;21.08;;;10.15;;
75526;SDS011;64107;49.248;7.006;2023-08-17T03:48:25;12.13;;;5.63;;
75526;SDS011;64107;49.248;7.006;2023-08-17T03:50:51;13.75;;;5.93;;
75526;SDS011;64107;49.248;7.006;2023-08-17T03:53:19;14.50;;;6.05;;
75526;SDS011;64107;49.248;7.006;2023-08-17T03:55:45;15.73;;;7.78;;
75526;SDS011;64107;49.248;7.006;2023-08-17T03:58:12;11.68;;;5.72;;
75526;SDS011;64107;49.248;7.006;2023-08-17T04:00:38;12.52;;;6.22;;
75526;SDS011;64107;49.248;7.006;2023-08-17T04:03:05;13.57;;;5.60;;
75526;SDS011;64107;49.248;7.006;2023-08-17T04:05:31;11.82;;;5.70;;
75526;SDS011;64107;49.248;7.006;2023-08-17T04:07:58;11.02;;;5.18;;
75526;SDS011;64107;49.248;7.006;2023-08-17T04:10:28;13.98;;;5.38;;
75526;SDS011;64107;49.248;7.006;2023-08-17T04:12:56;12.07;;;4.70;;
75526;SDS011;64107;49.248;7.006;2023-08-17T04:15:22;10.95;;;4.72;;
75526;SDS011;64107;49.248;7.006;2023-08-17T04:17:48;12.02;;;5.57;;
75526;SDS011;64107;49.248;7.006;2023-08-17T04:20:14;10.57;;;5.30;;
75526;SDS011;64107;49.248;7.006;2023-08-17T04:22:40;10.13;;;4.90;;
75526;SDS011;64107;49.248;7.006;2023-08-17T04:25:06;8.40;;;5.03;;
75526;SDS011;64107;49.248;7.006;2023-08-17T04:27:32;13.55;;;5.78;;
75526;SDS011;64107;49.248;7.006;2023-08-17T04:29:59;10.25;;;5.35;;
75526;SDS011;64107;49.248;7.006;2023-08-17T04:32:26;11.98;;;5.75;;
75526;SDS011;64107;49.248;7.006;2023-08-17T04:34:52;14.05;;;6.90;;
75526;SDS011;64107;49.248;7.006;2023-08-17T04:37:18;17.02;;;7.32;;
75526;SDS011;64107;49.248;7.006;2023-08-17T04:39:44;15.02;;;6.45;;
75526;SDS011;64107;49.248;7.006;2023-08-17T04:42:13;16.75;;;6.55;;
75526;SDS011;64107;49.248;7.006;2023-08-17T04:44:39;15.32;;;6.57;;
75526;SDS011;64107;49.248;7.006;2023-08-17T04:47:05;16.23;;;6.63;;
75526;SDS011;64107;49.248;7.006;2023-08-17T04:49:31;12.77;;;6.90;;
75526;SDS011;64107;49.248;7.006;2023-08-17T04:51:57;17.92;;;7.68;;
75526;SDS011;64107;49.248;7.006;2023-08-17T04:54:23;15.40;;;7.15;;
75526;SDS011;64107;49.248;7.006;2023-08-17T04:56:49;12.38;;;6.18;;
75526;SDS011;64107;49.248;7.006;2023-08-17T04:59:15;15.30;;;6.07;;
75526;SDS011;64107;49.248;7.006;2023-08-17T05:01:41;13.80;;;6.07;;
75526;SDS011;64107;49.248;7.006;2023-08-17T05:04:07;12.38;;;5.30;;
75526;SDS011;64107;49.248;7.006;2023-08-17T05:06:33;13.73;;;6.68;;
75526;SDS011;64107;49.248;7.006;2023-08-17T05:08:59;11.40;;;5.18;;
75526;SDS011;64107;49.248;7.006;2023-08-17T05:11:25;9.57;;;4.95;;
75526;SDS011;64107;49.248;7.006;2023-08-17T05:13:51;9.52;;;5.30;;
75526;SDS011;64107;49.248;7.006;2023-08-17T05:16:17;9.85;;;5.20;;
75526;SDS011;64107;49.248;7.006;2023-08-17T05:18:43;9.93;;;5.20;;
75526;SDS011;64107;49.248;7.006;2023-08-17T05:21:09;10.35;;;5.55;;
75526;SDS011;64107;49.248;7.006;2023-08-17T05:23:35;10.25;;;4.45;;
75526;SDS011;64107;49.248;7.006;2023-08-17T05:26:01;10.65;;;5.18;;
75526;SDS011;64107;49.248;7.006;2023-08-17T05:28:27;9.40;;;4.95;;
75526;SDS011;64107;49.248;7.006;2023-08-17T05:30:53;8.73;;;4.57;;
75526;SDS011;64107;49.248;7.006;2023-08-17T05:33:20;9.38;;;3.45;;
75526;SDS011;64107;49.248;7.006;2023-08-17T05:35:46;7.00;;;3.63;;
75526;SDS011;64107;49.248;7.006;2023-08-17T05:38:13;6.40;;;3.17;;
75526;SDS011;64107;49.248;7.006;2023-08-17T05:40:39;4.95;;;2.92;;
75526;SDS011;64107;49.248;7.006;2023-08-17T05:43:05;6.15;;;3.50;;
75526;SDS011;64107;49.248;7.006;2023-08-17T05:45:31;5.90;;;3.78;;
75526;SDS011;64107;49.248;7.006;2023-08-17T05:48:01;6.18;;;3.20;;
75526;SDS011;64107;49.248;7.006;2023-08-17T05:50:28;4.30;;;2.90;;
75526;SDS011;64107;49.248;7.006;2023-08-17T05:52:54;4.47;;;2.97;;
75526;SDS011;64107;49.248;7.006;2023-08-17T05:55:20;6.07;;;3.30;;
75526;SDS011;64107;49.248;7.006;2023-08-17T05:57:46;6.00;;;2.97;;
75526;SDS011;64107;49.248;7.006;2023-08-17T06:00:12;6.28;;;3.00;;
75526;SDS011;64107;49.248;7.006;2023-08-17T06:02:39;4.97;;;2.88;;
75526;SDS011;64107;49.248;7.006;2023-08-17T06:05:05;5.82;;;3.25;;
75526;SDS011;64107;49.248;7.006;2023-08-17T06:07:32;5.10;;;3.10;;
75526;SDS011;64107;49.248;7.006;2023-08-17T06:09:58;4.32;;;2.92;;
75526;SDS011;64107;49.248;7.006;2023-08-17T06:12:24;3.97;;;2.53;;
75526;SDS011;64107;49.248;7.006;2023-08-17T06:14:50;4.70;;;2.60;;
75526;SDS011;64107;49.248;7.006;2023-08-17T06:17:16;3.20;;;2.20;;
75526;SDS011;64107;49.248;7.006;2023-08-17T06:19:42;4.13;;;2.50;;
75526;SDS011;64107;49.248;7.006;2023-08-17T06:22:08;5.30;;;2.45;;
75526;SDS011;64107;49.248;7.006;2023-08-17T06:24:34;2.85;;;2.08;;
75526;SDS011;64107;49.248;7.006;2023-08-17T06:27:00;4.25;;;1.90;;
75526;SDS011;64107;49.248;7.006;2023-08-17T06:29:27;5.63;;;2.80;;
75526;SDS011;64107;49.248;7.006;2023-08-17T06:31:53;5.38;;;2.30;;
75526;SDS011;64107;49.248;7.006;2023-08-17T06:34:20;3.00;;;2.08;;
75526;SDS011;64107;49.248;7.006;2023-08-17T06:36:56;3.60;;;2.28;;
75526;SDS011;64107;49.248;7.006;2023-08-17T06:39:27;4.00;;;2.65;;
75526;SDS011;64107;49.248;7.006;2023-08-17T06:41:53;6.15;;;3.13;;
75526;SDS011;64107;49.248;7.006;2023-08-17T06:44:19;6.18;;;3.00;;
75526;SDS011;64107;49.248;7.006;2023-08-17T06:46:46;4.25;;;2.92;;
75526;SDS011;64107;49.248;7.006;2023-08-17T06:49:12;3.97;;;2.60;;
75526;SDS011;64107;49.248;7.006;2023-08-17T06:51:38;5.75;;;2.72;;
75526;SDS011;64107;49.248;7.006;2023-08-17T06:54:05;7.22;;;3.00;;
75526;SDS011;64107;49.248;7.006;2023-08-17T06:56:32;4.45;;;2.63;;
75526;SDS011;64107;49.248;7.006;2023-08-17T06:58:58;5.65;;;2.97;;
75526;SDS011;64107;49.248;7.006;2023-08-17T07:01:24;3.88;;;2.50;;
75526;SDS011;64107;49.248;7.006;2023-08-17T07:03:51;5.10;;;2.97;;
75526;SDS011;64107;49.248;7.006;2023-08-17T07:06:17;4.00;;;2.72;;
75526;SDS011;64107;49.248;7.006;2023-08-17T07:08:44;9.55;;;2.95;;
75526;SDS011;64107;49.248;7.006;2023-08-17T07:11:11;4.70;;;2.95;;
75526;SDS011;64107;49.248;7.006;2023-08-17T07:13:37;6.13;;;2.90;;
75526;SDS011;64107;49.248;7.006;2023-08-17T07:16:03;5.38;;;3.30;;
75526;SDS011;64107;49.248;7.006;2023-08-17T07:18:29;5.40;;;3.63;;
75526;SDS011;64107;49.248;7.006;2023-08-17T07:20:55;7.22;;;4.20;;
75526;SDS011;64107;49.248;7.006;2023-08-17T07:23:21;6.82;;;4.43;;
75526;SDS011;64107;49.248;7.006;2023-08-17T07:25:48;7.68;;;4.22;;
75526;SDS011;64107;49.248;7.006;2023-08-17T07:28:14;10.38;;;5.93;;
75526;SDS011;64107;49.248;7.006;2023-08-17T07:30:40;5.78;;;3.42;;
75526;SDS011;64107;49.248;7.006;2023-08-17T07:33:06;10.55;;;6.60;;
75526;SDS011;64107;49.248;7.006;2023-08-17T07:35:32;7.80;;;5.25;;
75526;SDS011;64107;49.248;7.006;2023-08-17T07:37:59;8.18;;;3.45;;
75526;SDS011;64107;49.248;7.006;2023-08-17T07:40:25;6.35;;;3.72;;
75526;SDS011;64107;49.248;7.006;2023-08-17T07:42:51;6.53;;;3.50;;
75526;SDS011;64107;49.248;7.006;2023-08-17T07:45:17;6.25;;;3.60;;
75526;SDS011;64107;49.248;7.006;2023-08-17T07:47:44;6.68;;;3.33;;
75526;SDS011;64107;49.248;7.006;2023-08-17T07:50:10;4.97;;;3.28;;
75526;SDS011;64107;49.248;7.006;2023-08-17T07:52:36;5.95;;;3.63;;
75526;SDS011;64107;49.248;7.006;2023-08-17T07:55:02;6.70;;;4.00;;
75526;SDS011;64107;49.248;7.006;2023-08-17T07:57:28;5.93;;;4.00;;
75526;SDS011;64107;49.248;7.006;2023-08-17T07:59:54;7.28;;;4.13;;
75526;SDS011;64107;49.248;7.006;2023-08-17T08:02:20;7.32;;;3.78;;
75526;SDS011;64107;49.248;7.006;2023-08-17T08:04:46;7.80;;;3.53;;
75526;SDS011;64107;49.248;7.006;2023-08-17T08:07:13;7.63;;;3.50;;
75526;SDS011;64107;49.248;7.006;2023-08-17T08:09:39;4.57;;;3.55;;
75526;SDS011;64107;49.248;7.006;2023-08-17T08:12:05;4.40;;;3.47;;
75526;SDS011;64107;49.248;7.006;2023-08-17T08:14:32;5.20;;;3.33;;
75526;SDS011;64107;49.248;7.006;2023-08-17T08:16:59;5.32;;;2.70;;
75526;SDS011;64107;49.248;7.006;2023-08-17T08:19:25;4.75;;;3.03;;
75526;SDS011;64107;49.248;7.006;2023-08-17T08:21:51;5.50;;;3.33;;
75526;SDS011;64107;49.248;7.006;2023-08-17T08:24:17;7.90;;;3.42;;
75526;SDS011;64107;49.248;7.006;2023-08-17T08:26:43;5.07;;;3.50;;
75526;SDS011;64107;49.248;7.006;2023-08-17T08:29:09;8.55;;;3.30;;
75526;SDS011;64107;49.248;7.006;2023-08-17T08:31:35;3.35;;;2.70;;
75526;SDS011;64107;49.248;7.006;2023-08-17T08:34:01;4.35;;;3.10;;
75526;SDS011;64107;49.248;7.006;2023-08-17T08:36:27;9.30;;;5.50;;
75526;SDS011;64107;49.248;7.006;2023-08-17T08:38:53;4.18;;;3.42;;
75526;SDS011;64107;49.248;7.006;2023-08-17T08:41:19;6.00;;;3.97;;
75526;SDS011;64107;49.248;7.006;2023-08-17T08:43:47;4.47;;;3.55;;
75526;SDS011;64107;49.248;7.006;2023-08-17T08:46:13;4.22;;;2.78;;
75526;SDS011;64107;49.248;7.006;2023-08-17T08:48:42;5.22;;;3.40;;
75526;SDS011;64107;49.248;7.006;2023-08-17T08:51:08;5.10;;;3.47;;
75526;SDS011;64107;49.248;7.006;2023-08-17T08:53:38;3.90;;;3.00;;
75526;SDS011;64107;49.248;7.006;2023-08-17T08:56:09;3.78;;;3.33;;
75526;SDS011;64107;49.248;7.006;2023-08-17T08:58:37;5.15;;;3.72;;
75526;SDS011;64107;49.248;7.006;2023-08-17T09:01:04;4.35;;;3.45;;
75526;SDS011;64107;49.248;7.006;2023-08-17T09:03:30;3.72;;;2.63;;
75526;SDS011;64107;49.248;7.006;2023-08-17T09:05:58;2.72;;;2.30;;
75526;SDS011;64107;49.248;7.006;2023-08-17T09:08:28;4.68;;;2.28;;
75526;SDS011;64107;49.248;7.006;2023-08-17T09:10:55;3.70;;;1.88;;
75526;SDS011;64107;49.248;7.006;2023-08-17T09:13:21;2.83;;;1.95;;
75526;SDS011;64107;49.248;7.006;2023-08-17T09:15:47;4.05;;;2.10;;
75526;SDS011;64107;49.248;7.006;2023-08-17T09:18:13;2.35;;;1.92;;
75526;SDS011;64107;49.248;7.006;2023-08-17T09:20:43;2.38;;;2.05;;
75526;SDS011;64107;49.248;7.006;2023-08-17T09:23:11;1.92;;;1.73;;
75526;SDS011;64107;49.248;7.006;2023-08-17T09:25:39;2.45;;;2.05;;
75526;SDS011;64107;49.248;7.006;2023-08-17T09:28:09;2.70;;;2.15;;
75526;SDS011;64107;49.248;7.006;2023-08-17T09:33:22;2.08;;;1.70;;
75526;SDS011;64107;49.248;7.006;2023-08-17T09:38:20;7.20;;;4.15;;
75526;SDS011;64107;49.248;7.006;2023-08-17T09:40:46;4.05;;;2.00;;
75526;SDS011;64107;49.248;7.006;2023-08-17T09:43:16;2.50;;;1.65;;
75526;SDS011;64107;49.248;7.006;2023-08-17T09:45:43;1.77;;;1.63;;
75526;SDS011;64107;49.248;7.006;2023-08-17T09:50:42;3.58;;;2.20;;
75526;SDS011;64107;49.248;7.006;2023-08-17T09:53:15;2.33;;;1.92;;
75526;SDS011;64107;49.248;7.006;2023-08-17T09:55:43;1.80;;;1.50;;
75526;SDS011;64107;49.248;7.006;2023-08-17T09:58:10;1.60;;;1.50;;
75526;SDS011;64107;49.248;7.006;2023-08-17T10:00:45;3.67;;;2.40;;
75526;SDS011;64107;49.248;7.006;2023-08-17T10:03:14;1.83;;;1.50;;
75526;SDS011;64107;49.248;7.006;2023-08-17T10:05:41;2.67;;;1.88;;
75526;SDS011;64107;49.248;7.006;2023-08-17T10:08:10;2.10;;;1.70;;
75526;SDS011;64107;49.248;7.006;2023-08-17T10:10:38;2.90;;;2.45;;
75526;SDS011;64107;49.248;7.006;2023-08-17T10:13:09;16.52;;;10.15;;
75526;SDS011;64107;49.248;7.006;2023-08-17T10:15:49;3.80;;;2.15;;
75526;SDS011;64107;49.248;7.006;2023-08-17T10:18:37;4.90;;;1.90;;
75526;SDS011;64107;49.248;7.006;2023-08-17T10:21:10;4.65;;;2.53;;
75526;SDS011;64107;49.248;7.006;2023-08-17T10:23:40;2.95;;;2.33;;
75526;SDS011;64107;49.248;7.006;2023-08-17T10:26:07;7.18;;;3.35;;
75526;SDS011;64107;49.248;7.006;2023-08-17T10:28:34;7.45;;;3.88;;
75526;SDS011;64107;49.248;7.006;2023-08-17T10:31:01;6.82;;;3.30;;
75526;SDS011;64107;49.248;7.006;2023-08-17T10:33:27;8.80;;;3.85;;
75526;SDS011;64107;49.248;7.006;2023-08-17T10:35:53;5.07;;;3.47;;
75526;SDS011;64107;49.248;7.006;2023-08-17T10:38:20;7.07;;;4.47;;
75526;SDS011;64107;49.248;7.006;2023-08-17T10:40:47;6.72;;;3.25;;
75526;SDS011;64107;49.248;7.006;2023-08-17T10:43:57;7.30;;;4.70;;
75526;SDS011;64107;49.248;7.006;2023-08-17T10:46:37;4.32;;;3.20;;
75526;SDS011;64107;49.248;7.006;2023-08-17T10:49:05;6.35;;;3.88;;
75526;SDS011;64107;49.248;7.006;2023-08-17T10:51:32;6.75;;;4.00;;
75526;SDS011;64107;49.248;7.006;2023-08-17T10:54:01;7.10;;;4.20;;
75526;SDS011;64107;49.248;7.006;2023-08-17T10:56:29;7.25;;;4.82;;
75526;SDS011;64107;49.248;7.006;2023-08-17T10:58:59;7.95;;;4.72;;
75526;SDS011;64107;49.248;7.006;2023-08-17T11:01:36;7.13;;;3.63;;
75526;SDS011;64107;49.248;7.006;2023-08-17T11:04:11;8.85;;;5.18;;
75526;SDS011;64107;49.248;7.006;2023-08-17T11:06:38;5.90;;;3.72;;
75526;SDS011;64107;49.248;7.006;2023-08-17T11:09:07;7.88;;;3.90;;
75526;SDS011;64107;49.248;7.006;2023-08-17T11:11:34;3.70;;;2.83;;
75526;SDS011;64107;49.248;7.006;2023-08-17T11:14:00;3.80;;;3.17;;
75526;SDS011;64107;49.248;7.006;2023-08-17T11:16:26;5.47;;;3.63;;
75526;SDS011;64107;49.248;7.006;2023-08-17T11:18:52;14.50;;;7.53;;
75526;SDS011;64107;49.248;7.006;2023-08-17T11:21:20;5.35;;;3.47;;
75526;SDS011;64107;49.248;7.006;2023-08-17T11:23:46;4.90;;;3.35;;
75526;SDS011;64107;49.248;7.006;2023-08-17T11:26:19;4.82;;;2.97;;
75526;SDS011;64107;49.248;7.006;2023-08-17T11:28:45;3.78;;;2.40;;
75526;SDS011;64107;49.248;7.006;2023-08-17T11:31:13;4.20;;;3.17;;
75526;SDS011;64107;49.248;7.006;2023-08-17T11:33:40;6.78;;;3.42;;
75526;SDS011;64107;49.248;7.006;2023-08-17T11:36:08;5.20;;;3.70;;
75526;SDS011;64107;49.248;7.006;2023-08-17T11:38:41;5.68;;;3.85;;
75526;SDS011;64107;49.248;7.006;2023-08-17T11:41:08;3.25;;;2.92;;
75526;SDS011;64107;49.248;7.006;2023-08-17T11:43:34;4.10;;;3.25;;
75526;SDS011;64107;49.248;7.006;2023-08-17T11:46:01;7.63;;;3.92;;
75526;SDS011;64107;49.248;7.006;2023-08-17T11:48:27;6.25;;;4.50;;
75526;SDS011;64107;49.248;7.006;2023-08-17T11:50:54;6.35;;;3.90;;
75526;SDS011;64107;49.248;7.006;2023-08-17T11:53:20;9.35;;;5.45;;
75526;SDS011;64107;49.248;7.006;2023-08-17T11:55:46;7.65;;;3.58;;
75526;SDS011;64107;49.248;7.006;2023-08-17T11:58:12;9.27;;;4.75;;
75526;SDS011;64107;49.248;7.006;2023-08-17T12:00:39;4.40;;;4.00;;
75526;SDS011;64107;49.248;7.006;2023-08-17T12:03:12;5.63;;;4.50;;
75526;SDS011;64107;49.248;7.006;2023-08-17T12:05:39;4.95;;;3.72;;
75526;SDS011;64107;49.248;7.006;2023-08-17T12:08:07;8.88;;;6.20;;
75526;SDS011;64107;49.248;7.006;2023-08-17T12:10:33;10.65;;;6.40;;
75526;SDS011;64107;49.248;7.006;2023-08-17T12:13:00;4.55;;;3.42;;
75526;SDS011;64107;49.248;7.006;2023-08-17T12:15:35;8.10;;;4.28;;
75526;SDS011;64107;49.248;7.006;2023-08-17T12:18:02;9.73;;;4.80;;
75526;SDS011;64107;49.248;7.006;2023-08-17T12:20:28;6.72;;;4.55;;
75526;SDS011;64107;49.248;7.006;2023-08-17T12:22:56;4.05;;;3.33;;
75526;SDS011;64107;49.248;7.006;2023-08-17T12:25:23;8.07;;;4.65;;
75526;SDS011;64107;49.248;7.006;2023-08-17T12:27:50;4.20;;;3.55;;
75526;SDS011;64107;49.248;7.006;2023-08-17T12:30:24;5.40;;;4.13;;
75526;SDS011;64107;49.248;7.006;2023-08-17T12:32:56;6.57;;;3.13;;
75526;SDS011;64107;49.248;7.006;2023-08-17T12:35:22;4.50;;;3.78;;
75526;SDS011;64107;49.248;7.006;2023-08-17T12:37:49;3.55;;;2.78;;
75526;SDS011;64107;49.248;7.006;2023-08-17T12:40:16;4.45;;;2.85;;
75526;SDS011;64107;49.248;7.006;2023-08-17T12:42:42;4.28;;;2.72;;
75526;SDS011;64107;49.248;7.006;2023-08-17T12:45:08;2.63;;;2.20;;
75526;SDS011;64107;49.248;7.006;2023-08-17T12:47:34;3.25;;;2.72;;
75526;SDS011;64107;49.248;7.006;2023-08-17T12:50:00;8.85;;;3.20;;
75526;SDS011;64107;49.248;7.006;2023-08-17T12:52:28;5.13;;;3.42;;
75526;SDS011;64107;49.248;7.006;2023-08-17T12:54:54;5.20;;;3.05;;
75526;SDS011;64107;49.248;7.006;2023-08-17T12:57:20;5.05;;;2.85;;
75526;SDS011;64107;49.248;7.006;2023-08-17T12:59:46;7.60;;;2.83;;
75526;SDS011;64107;49.248;7.006;2023-08-17T13:02:12;3.53;;;2.83;;
75526;SDS011;64107;49.248;7.006;2023-08-17T13:04:39;4.60;;;3.00;;
75526;SDS011;64107;49.248;7.006;2023-08-17T13:07:06;5.63;;;3.40;;
75526;SDS011;64107;49.248;7.006;2023-08-17T13:09:32;7.70;;;2.83;;
75526;SDS011;64107;49.248;7.006;2023-08-17T13:11:58;2.70;;;2.38;;
75526;SDS011;64107;49.248;7.006;2023-08-17T13:14:25;4.00;;;2.35;;
75526;SDS011;64107;49.248;7.006;2023-08-17T13:16:51;3.83;;;2.88;;
75526;SDS011;64107;49.248;7.006;2023-08-17T13:19:17;2.63;;;2.42;;
75526;SDS011;64107;49.248;7.006;2023-08-17T13:21:44;4.15;;;2.83;;
75526;SDS011;64107;49.248;7.006;2023-08-17T13:24:11;3.90;;;2.50;;
75526;SDS011;64107;49.248;7.006;2023-08-17T13:26:37;3.15;;;2.55;;
75526;SDS011;64107;49.248;7.006;2023-08-17T13:29:03;3.80;;;2.78;;
75526;SDS011;64107;49.248;7.006;2023-08-17T13:31:29;5.43;;;2.90;;
75526;SDS011;64107;49.248;7.006;2023-08-17T13:33:56;2.78;;;2.50;;
75526;SDS011;64107;49.248;7.006;2023-08-17T13:36:22;3.80;;;2.95;;
75526;SDS011;64107;49.248;7.006;2023-08-17T13:38:48;4.30;;;2.95;;
75526;SDS011;64107;49.248;7.006;2023-08-17T13:41:14;3.17;;;2.63;;
75526;SDS011;64107;49.248;7.006;2023-08-17T13:43:40;3.63;;;2.70;;
75526;SDS011;64107;49.248;7.006;2023-08-17T13:46:06;4.00;;;3.60;;
75526;SDS011;64107;49.248;7.006;2023-08-17T13:48:33;4.05;;;2.97;;
75526;SDS011;64107;49.248;7.006;2023-08-17T13:50:59;4.95;;;3.28;;
75526;SDS011;64107;49.248;7.006;2023-08-17T13:53:25;5.55;;;3.33;;
75526;SDS011;64107;49.248;7.006;2023-08-17T13:55:51;4.20;;;2.92;;
75526;SDS011;64107;49.248;7.006;2023-08-17T13:58:17;4.00;;;3.03;;
75526;SDS011;64107;49.248;7.006;2023-08-17T14:00:43;5.15;;;3.05;;
75526;SDS011;64107;49.248;7.006;2023-08-17T14:03:09;4.07;;;2.95;;
75526;SDS011;64107;49.248;7.006;2023-08-17T14:05:35;3.65;;;3.28;;
75526;SDS011;64107;49.248;7.006;2023-08-17T14:08:01;4.32;;;2.80;;
75526;SDS011;64107;49.248;7.006;2023-08-17T14:10:29;3.53;;;2.95;;
75526;SDS011;64107;49.248;7.006;2023-08-17T14:12:55;5.65;;;4.05;;
75526;SDS011;64107;49.248;7.006;2023-08-17T14:15:21;3.85;;;3.22;;
75526;SDS011;64107;49.248;7.006;2023-08-17T14:17:47;5.15;;;2.75;;
75526;SDS011;64107;49.248;7.006;2023-08-17T14:20:13;4.05;;;3.65;;
75526;SDS011;64107;49.248;7.006;2023-08-17T14:22:39;4.07;;;3.30;;
75526;SDS011;64107;49.248;7.006;2023-08-17T14:25:06;4.97;;;2.80;;
75526;SDS011;64107;49.248;7.006;2023-08-17T14:27:32;2.70;;;2.50;;
75526;SDS011;64107;49.248;7.006;2023-08-17T14:29:58;9.15;;;4.00;;
75526;SDS011;64107;49.248;7.006;2023-08-17T14:32:26;5.20;;;3.20;;
75526;SDS011;64107;49.248;7.006;2023-08-17T14:34:53;3.15;;;2.78;;
75526;SDS011;64107;49.248;7.006;2023-08-17T14:37:19;3.75;;;3.35;;
75526;SDS011;64107;49.248;7.006;2023-08-17T14:39:46;4.90;;;3.10;;
75526;SDS011;64107;49.248;7.006;2023-08-17T14:42:12;3.22;;;2.80;;
75526;SDS011;64107;49.248;7.006;2023-08-17T14:44:38;4.38;;;2.90;;
75526;SDS011;64107;49.248;7.006;2023-08-17T14:47:04;3.55;;;2.80;;
75526;SDS011;64107;49.248;7.006;2023-08-17T14:49:30;3.63;;;3.33;;